createdAt,value
2018-07-22T00:00:22.415Z,33.20
2018-07-22T00:02:51.211Z,42.67
2018-07-22T00:05:20.111Z,36.67
2018-07-22T00:07:48.994Z,35.27
2018-07-22T00:10:27.578Z,32.00
2018-07-22T00:13:00.818Z,32.17
2018-07-22T00:15:29.817Z,32.53
2018-07-22T00:17:58.930Z,35.80
2018-07-22T00:20:27.882Z,32.03
2018-07-22T00:22:56.748Z,35.17
2018-07-22T00:25:25.770Z,36.50
2018-07-22T00:27:54.590Z,28.90
2018-07-22T00:30:23.394Z,32.03
2018-07-22T00:32:52.245Z,27.00
2018-07-22T00:35:21.766Z,29.60
2018-07-22T00:37:50.500Z,34.43
2018-07-22T00:40:19.532Z,33.13
2018-07-22T00:42:48.438Z,34.73
2018-07-22T00:45:17.179Z,35.93
2018-07-22T00:47:46.074Z,32.10
2018-07-22T00:50:14.924Z,32.90
2018-07-22T00:52:43.765Z,28.87
2018-07-22T00:55:12.670Z,29.20
2018-07-22T00:57:41.766Z,30.27
2018-07-22T01:00:10.675Z,24.27
2018-07-22T01:02:39.560Z,29.70
2018-07-22T01:05:08.522Z,28.07
2018-07-22T01:07:37.594Z,30.40
2018-07-22T01:10:06.534Z,26.87
2018-07-22T01:12:35.325Z,31.13
2018-07-22T01:15:04.346Z,33.57
2018-07-22T01:17:33.126Z,24.53
2018-07-22T01:20:02.121Z,19.23
2018-07-22T01:22:31.056Z,21.90
2018-07-22T01:25:00.449Z,25.03
2018-07-22T01:27:29.193Z,24.53
2018-07-22T01:29:58.129Z,23.50
2018-07-22T01:32:27.017Z,20.80
2018-07-22T01:34:56.813Z,33.40
2018-07-22T01:37:25.715Z,27.17
2018-07-22T01:39:54.491Z,28.77
2018-07-22T01:42:23.345Z,28.20
2018-07-22T01:44:52.214Z,23.83
2018-07-22T01:47:21.029Z,26.43
2018-07-22T01:49:49.806Z,28.63
2018-07-22T01:52:21.100Z,24.60
2018-07-22T01:54:49.877Z,26.70
2018-07-22T01:57:18.754Z,24.70
2018-07-22T01:59:47.706Z,26.63
2018-07-22T02:02:16.682Z,26.30
2018-07-22T02:04:45.439Z,21.60
2018-07-22T02:07:14.368Z,23.73
2018-07-22T02:09:43.343Z,26.23
2018-07-22T02:12:12.124Z,25.77
2018-07-22T02:14:41.179Z,23.10
2018-07-22T02:17:10.353Z,22.67
2018-07-22T02:19:39.365Z,23.30
2018-07-22T02:22:08.291Z,22.63
2018-07-22T02:24:37.361Z,31.50
2018-07-22T02:27:06.217Z,24.07
2018-07-22T02:29:35.157Z,23.43
2018-07-22T02:32:06.429Z,27.47
2018-07-22T02:34:35.396Z,18.40
2018-07-22T02:37:04.495Z,20.53
2018-07-22T02:39:33.338Z,19.60
2018-07-22T02:42:02.316Z,19.20
2018-07-22T02:44:31.245Z,15.07
2018-07-22T02:47:00.131Z,16.03
2018-07-22T02:49:28.810Z,18.30
2018-07-22T02:51:57.875Z,13.73
2018-07-22T02:54:26.698Z,12.67
2018-07-22T02:56:55.663Z,19.70
2018-07-22T02:59:24.611Z,13.80
2018-07-22T03:01:53.502Z,15.13
2018-07-22T03:04:22.378Z,10.37
2018-07-22T03:06:51.355Z,18.40
2018-07-22T03:09:20.303Z,17.40
2018-07-22T03:11:49.078Z,15.60
2018-07-22T03:14:17.847Z,14.57
2018-07-22T03:16:47.132Z,12.93
2018-07-22T03:19:16.151Z,20.67
2018-07-22T03:21:44.957Z,17.47
2018-07-22T03:24:14.003Z,15.37
2018-07-22T03:26:42.790Z,17.13
2018-07-22T03:29:11.952Z,20.33
2018-07-22T03:31:41.027Z,23.10
2018-07-22T03:34:10.133Z,16.53
2018-07-22T03:36:39.114Z,18.00
2018-07-22T03:39:10.034Z,24.87
2018-07-22T03:41:39.428Z,16.70
2018-07-22T03:44:08.630Z,20.83
2018-07-22T03:46:37.604Z,15.30
2018-07-22T03:49:06.667Z,22.83
2018-07-22T03:51:35.450Z,13.47
2018-07-22T03:54:04.278Z,13.27
2018-07-22T03:56:33.161Z,20.30
2018-07-22T03:59:02.018Z,16.63
2018-07-22T04:01:31.098Z,11.80
2018-07-22T04:04:00.157Z,15.63
2018-07-22T04:06:29.393Z,16.20
2018-07-22T04:08:58.413Z,13.97
2018-07-22T04:11:27.277Z,14.13
2018-07-22T04:13:56.468Z,14.20
2018-07-22T04:16:25.386Z,19.00
2018-07-22T04:18:54.865Z,13.10
2018-07-22T04:21:24.795Z,14.17
2018-07-22T04:23:53.728Z,15.00
2018-07-22T04:26:22.833Z,16.30
2018-07-22T04:28:52.058Z,18.47
2018-07-22T04:31:21.155Z,19.00
2018-07-22T04:33:50.171Z,19.07
2018-07-22T04:36:19.241Z,19.67
2018-07-22T04:38:48.174Z,18.97
2018-07-22T04:41:16.967Z,18.30
2018-07-22T04:43:45.933Z,17.87
2018-07-22T04:46:14.928Z,16.93
2018-07-22T04:48:43.876Z,17.80
2018-07-22T04:51:12.751Z,17.23
2018-07-22T04:53:41.537Z,18.57
2018-07-22T04:56:10.513Z,18.10
2018-07-22T04:58:39.383Z,18.20
2018-07-22T05:01:08.262Z,23.97
2018-07-22T05:03:37.289Z,16.40
2018-07-22T05:06:06.584Z,19.10
2018-07-22T05:08:35.309Z,14.97
2018-07-22T05:11:04.173Z,12.97
2018-07-22T05:13:33.111Z,15.13
2018-07-22T05:16:02.051Z,12.80
2018-07-22T05:18:30.934Z,14.27
2018-07-22T05:21:00.014Z,17.07
2018-07-22T05:23:28.841Z,14.13
2018-07-22T05:25:57.670Z,16.37
2018-07-22T05:28:26.489Z,18.27
2018-07-22T05:30:55.295Z,14.20
2018-07-22T05:33:24.294Z,13.60
2018-07-22T05:35:53.337Z,13.40
2018-07-22T05:38:22.280Z,11.93
2018-07-22T05:40:51.137Z,14.87
2018-07-22T05:43:19.925Z,11.40
2018-07-22T05:45:48.669Z,13.07
2018-07-22T05:48:17.746Z,13.73
2018-07-22T05:50:46.527Z,20.93
2018-07-22T05:53:15.316Z,11.33
2018-07-22T05:55:44.039Z,10.50
2018-07-22T05:58:12.804Z,12.57
2018-07-22T06:00:41.710Z,10.90
2018-07-22T06:03:10.601Z,11.10
2018-07-22T06:05:39.353Z,12.13
2018-07-22T06:08:08.266Z,13.90
2018-07-22T06:10:37.053Z,13.17
2018-07-22T06:13:05.941Z,14.83
2018-07-22T06:15:34.733Z,13.13
2018-07-22T06:18:03.591Z,11.73
2018-07-22T06:20:32.391Z,12.50
2018-07-22T06:23:01.355Z,12.60
2018-07-22T06:25:30.206Z,14.00
2018-07-22T06:27:59.066Z,13.70
2018-07-22T06:30:27.882Z,13.60
2018-07-22T06:32:56.646Z,12.27
2018-07-22T06:35:25.537Z,19.43
2018-07-22T06:37:54.382Z,13.27
2018-07-22T06:40:23.115Z,14.67
2018-07-22T06:42:52.201Z,15.73
2018-07-22T06:45:21.221Z,15.47
2018-07-22T06:47:50.147Z,13.57
2018-07-22T06:50:18.995Z,16.57
2018-07-22T06:52:48.014Z,11.63
2018-07-22T06:55:17.087Z,17.73
2018-07-22T06:57:45.882Z,11.93
2018-07-22T07:00:14.638Z,15.77
2018-07-22T07:02:43.407Z,14.97
2018-07-22T07:05:12.262Z,15.33
2018-07-22T07:07:41.150Z,13.73
2018-07-22T07:10:10.066Z,12.47
2018-07-22T07:12:38.786Z,15.77
2018-07-22T07:15:07.798Z,16.27
2018-07-22T07:17:36.702Z,12.83
2018-07-22T07:20:06.018Z,12.37
2018-07-22T07:22:35.085Z,14.63
2018-07-22T07:25:04.085Z,13.70
2018-07-22T07:27:32.966Z,12.67
2018-07-22T07:30:01.759Z,14.90
2018-07-22T07:32:30.654Z,12.73
2018-07-22T07:34:59.729Z,22.53
2018-07-22T07:37:29.433Z,12.77
2018-07-22T07:39:58.346Z,11.67
2018-07-22T07:42:27.165Z,15.07
2018-07-22T07:44:56.298Z,14.30
2018-07-22T07:47:25.752Z,13.90
2018-07-22T07:49:54.686Z,13.87
2018-07-22T07:52:23.619Z,16.30
2018-07-22T07:54:52.490Z,20.77
2018-07-22T07:57:21.354Z,12.80
2018-07-22T07:59:53.373Z,18.30
2018-07-22T08:02:23.965Z,17.90
2018-07-22T08:04:53.008Z,14.57
2018-07-22T08:07:21.996Z,17.33
2018-07-22T08:09:50.893Z,15.53
2018-07-22T08:12:19.913Z,14.33
2018-07-22T08:14:49.466Z,13.77
2018-07-22T08:17:18.345Z,14.60
2018-07-22T08:19:47.192Z,12.40
2018-07-22T08:22:16.351Z,15.53
2018-07-22T08:24:45.360Z,13.50
2018-07-22T08:27:14.522Z,17.23
2018-07-22T08:29:43.605Z,15.10
2018-07-22T08:32:13.517Z,14.90
2018-07-22T08:34:42.477Z,18.83
2018-07-22T08:37:11.459Z,16.93
2018-07-22T08:39:40.674Z,15.77
2018-07-22T08:42:09.924Z,15.87
2018-07-22T08:44:38.826Z,16.37
2018-07-22T08:47:07.825Z,15.47
2018-07-22T08:49:36.802Z,14.93
2018-07-22T08:52:06.051Z,17.57
2018-07-22T08:54:35.062Z,15.40
2018-07-22T08:57:04.231Z,17.40
2018-07-22T08:59:33.134Z,19.27
2018-07-22T09:02:02.227Z,14.70
2018-07-22T09:04:31.225Z,16.40
2018-07-22T09:07:00.829Z,16.80
2018-07-22T09:09:29.690Z,17.70
2018-07-22T09:11:58.679Z,14.07
2018-07-22T09:14:27.578Z,15.13
2018-07-22T09:16:56.605Z,19.70
2018-07-22T09:19:25.355Z,18.97
2018-07-22T09:21:54.354Z,16.73
2018-07-22T09:24:23.369Z,18.20
2018-07-22T09:26:52.410Z,17.97
2018-07-22T09:29:21.332Z,22.10
2018-07-22T09:31:50.280Z,14.47
2018-07-22T09:34:19.177Z,21.50
2018-07-22T09:36:48.042Z,19.10
2018-07-22T09:39:17.231Z,17.40
2018-07-22T09:41:46.076Z,19.27
2018-07-22T09:44:14.929Z,17.80
2018-07-22T09:46:45.765Z,19.33
2018-07-22T09:49:14.623Z,21.23
2018-07-22T09:51:43.630Z,21.03
2018-07-22T09:54:12.377Z,21.80
2018-07-22T09:56:41.335Z,22.10
2018-07-22T09:59:10.117Z,22.63
2018-07-22T10:01:39.151Z,23.47
2018-07-22T10:04:08.328Z,19.63
2018-07-22T10:06:38.205Z,19.77
2018-07-22T10:09:11.167Z,20.33
2018-07-22T10:11:40.201Z,18.53
2018-07-22T10:14:09.057Z,19.20
2018-07-22T10:16:37.908Z,26.60
2018-07-22T10:19:06.961Z,21.97
2018-07-22T10:21:35.838Z,27.53
2018-07-22T10:24:04.746Z,20.07
2018-07-22T10:26:33.586Z,21.90
2018-07-22T10:29:02.431Z,21.37
2018-07-22T10:31:31.202Z,22.03
2018-07-22T10:34:00.124Z,24.10
2018-07-22T10:36:29.018Z,22.00
2018-07-22T10:38:57.773Z,20.97
2018-07-22T10:41:26.669Z,22.40
2018-07-22T10:43:55.425Z,19.10
2018-07-22T10:46:24.400Z,22.20
2018-07-22T10:48:53.456Z,20.70
2018-07-22T10:51:22.319Z,21.87
2018-07-22T10:53:51.086Z,24.23
2018-07-22T10:56:19.990Z,22.27
2018-07-22T10:58:49.280Z,23.07
2018-07-22T11:01:18.431Z,18.30
2018-07-22T11:03:47.399Z,25.93
2018-07-22T11:06:16.191Z,19.43
2018-07-22T11:08:46.364Z,22.67
2018-07-22T11:11:15.106Z,23.90
2018-07-22T11:13:44.029Z,22.17
2018-07-22T11:16:13.033Z,20.07
2018-07-22T11:18:41.889Z,20.47
2018-07-22T11:21:10.754Z,20.70
2018-07-22T11:23:39.571Z,19.20
2018-07-22T11:26:08.438Z,20.80
2018-07-22T11:28:37.590Z,21.90
2018-07-22T11:31:07.477Z,16.57
2018-07-22T11:33:36.312Z,19.43
2018-07-22T11:36:05.641Z,21.10
2018-07-22T11:38:34.473Z,19.80
2018-07-22T11:41:03.426Z,25.60
2018-07-22T11:43:32.359Z,16.30
2018-07-22T11:46:01.196Z,26.07
2018-07-22T11:48:30.038Z,19.03
2018-07-22T11:50:58.957Z,16.90
2018-07-22T11:53:27.920Z,16.57
2018-07-22T11:55:56.760Z,17.50
2018-07-22T11:58:25.613Z,20.47
2018-07-22T12:00:54.398Z,16.60
2018-07-22T12:03:23.751Z,21.90
2018-07-22T12:05:52.939Z,22.47
2018-07-22T12:08:21.815Z,21.80
2018-07-22T12:10:51.261Z,20.33
2018-07-22T12:13:20.124Z,18.20
2018-07-22T12:15:49.091Z,19.37
2018-07-22T12:18:17.961Z,19.77
2018-07-22T12:20:46.909Z,17.37
2018-07-22T12:23:15.735Z,27.10
2018-07-22T12:25:44.748Z,15.87
2018-07-22T12:28:13.750Z,25.53
2018-07-22T12:30:43.052Z,23.33
2018-07-22T12:33:12.607Z,18.70
2018-07-22T12:35:41.633Z,15.50
2018-07-22T12:38:10.429Z,19.33
2018-07-22T12:40:39.405Z,18.43
2018-07-22T12:43:08.397Z,19.23
2018-07-22T12:45:37.390Z,23.23
2018-07-22T12:48:06.524Z,18.70
2018-07-22T12:50:35.266Z,19.17
2018-07-22T12:53:04.118Z,22.13
2018-07-22T12:55:33.046Z,15.87
2018-07-22T12:58:01.926Z,23.50
2018-07-22T13:00:30.666Z,18.20
2018-07-22T13:02:59.421Z,20.83
2018-07-22T13:05:28.203Z,19.03
2018-07-22T13:07:57.037Z,17.17
2018-07-22T13:10:26.146Z,21.10
2018-07-22T13:12:55.399Z,24.70
2018-07-22T13:15:24.207Z,22.63
2018-07-22T13:17:53.033Z,23.90
2018-07-22T13:20:21.948Z,22.37
2018-07-22T13:22:50.755Z,20.63
2018-07-22T13:25:19.622Z,24.40
2018-07-22T13:27:48.554Z,27.93
2018-07-22T13:30:17.310Z,17.13
2018-07-22T13:32:46.339Z,20.23
2018-07-22T13:35:15.367Z,21.10
2018-07-22T13:37:44.228Z,18.03
2018-07-22T13:40:13.263Z,26.97
2018-07-22T13:42:42.007Z,19.40
2018-07-22T13:45:11.113Z,17.03
2018-07-22T13:47:39.758Z,20.13
2018-07-22T13:50:08.958Z,19.47
2018-07-22T13:52:37.873Z,22.50
2018-07-22T13:55:06.782Z,18.40
2018-07-22T13:57:35.563Z,20.77
2018-07-22T14:00:04.509Z,18.50
2018-07-22T14:02:33.194Z,28.77
2018-07-22T14:05:02.025Z,23.83
2018-07-22T14:07:31.035Z,13.07
2018-07-22T14:09:59.827Z,15.70
2018-07-22T14:12:28.845Z,15.17
2018-07-22T14:14:57.686Z,19.80
2018-07-22T14:17:26.410Z,13.97
2018-07-22T14:19:55.321Z,17.43
2018-07-22T14:22:24.146Z,17.87
2018-07-22T14:24:53.049Z,17.30
2018-07-22T14:27:22.029Z,15.13
2018-07-22T14:29:51.061Z,23.00
2018-07-22T14:32:19.781Z,21.97
2018-07-22T14:34:48.601Z,20.03
2018-07-22T14:37:17.428Z,18.60
2018-07-22T14:39:46.215Z,17.47
2018-07-22T14:42:14.991Z,21.70
2018-07-22T14:44:43.848Z,15.20
2018-07-22T14:47:12.723Z,15.80
2018-07-22T14:49:41.506Z,16.50
2018-07-22T14:52:10.259Z,15.30
2018-07-22T14:54:39.057Z,17.03
2018-07-22T14:57:07.953Z,21.40
2018-07-22T14:59:36.722Z,17.20
2018-07-22T15:02:05.728Z,17.10
2018-07-22T15:04:34.990Z,16.33
2018-07-22T15:07:03.930Z,14.20
2018-07-22T15:09:32.710Z,14.07
2018-07-22T15:12:01.718Z,13.87
2018-07-22T15:14:30.669Z,18.83
2018-07-22T15:16:59.820Z,15.87
2018-07-22T15:19:28.814Z,20.73
2018-07-22T15:21:57.662Z,17.13
2018-07-22T15:24:26.482Z,19.10
2018-07-22T15:26:55.550Z,15.53
2018-07-22T15:29:25.031Z,15.37
2018-07-22T15:31:53.735Z,16.53
2018-07-22T15:34:22.447Z,16.50
2018-07-22T15:36:51.480Z,17.67
2018-07-22T15:39:20.452Z,17.77
2018-07-22T15:41:49.349Z,12.93
2018-07-22T15:44:18.125Z,15.53
2018-07-22T15:46:47.154Z,15.47
2018-07-22T15:49:16.176Z,19.67
2018-07-22T15:51:45.521Z,16.47
2018-07-22T15:54:14.449Z,15.70
2018-07-22T15:56:43.564Z,18.37
2018-07-22T15:59:12.560Z,18.07
2018-07-22T16:01:41.456Z,19.60
2018-07-22T16:04:10.444Z,23.80
2018-07-22T16:06:39.249Z,24.03
2018-07-22T16:09:10.101Z,17.50
2018-07-22T16:11:38.929Z,19.27
2018-07-22T16:14:07.880Z,19.33
2018-07-22T16:16:37.765Z,19.73
2018-07-22T16:19:06.863Z,16.20
2018-07-22T16:21:35.893Z,20.13
2018-07-22T16:24:04.897Z,18.03
2018-07-22T16:26:33.950Z,20.33
2018-07-22T16:29:02.865Z,19.50
2018-07-22T16:31:32.246Z,16.83
2018-07-22T16:34:01.045Z,20.77
2018-07-22T16:36:30.104Z,20.73
2018-07-22T16:38:59.549Z,19.60
2018-07-22T16:41:28.893Z,17.73
2018-07-22T16:44:03.271Z,15.60
2018-07-22T16:46:32.334Z,22.67
2018-07-22T16:49:01.087Z,24.23
2018-07-22T16:51:30.121Z,18.20
2018-07-22T16:53:59.251Z,20.20
2018-07-22T16:56:28.070Z,25.10
2018-07-22T16:58:57.429Z,14.93
2018-07-22T17:01:26.497Z,21.70
2018-07-22T17:03:55.377Z,20.83
2018-07-22T17:06:24.243Z,20.50
2018-07-22T17:08:53.194Z,18.47
2018-07-22T17:11:22.057Z,20.07
2018-07-22T17:13:50.758Z,19.40
2018-07-22T17:16:19.658Z,21.40
2018-07-22T17:18:48.619Z,16.13
2018-07-22T17:21:17.758Z,20.00
2018-07-22T17:23:46.565Z,20.50
2018-07-22T17:26:15.550Z,19.17
2018-07-22T17:28:44.449Z,19.07
2018-07-22T17:31:13.262Z,14.30
2018-07-22T17:33:42.418Z,16.47
2018-07-22T17:36:11.241Z,16.17
2018-07-22T17:38:40.102Z,16.57
2018-07-22T17:41:08.806Z,19.83
2018-07-22T17:43:37.817Z,19.43
2018-07-22T17:46:06.700Z,19.53
2018-07-22T17:48:35.450Z,16.40
2018-07-22T17:51:04.371Z,18.57
2018-07-22T17:53:33.251Z,15.83
2018-07-22T17:56:02.217Z,15.93
2018-07-22T17:58:31.137Z,20.63
2018-07-22T18:01:00.138Z,21.73
2018-07-22T18:03:31.565Z,15.10
2018-07-22T18:06:00.878Z,13.10
2018-07-22T18:08:29.942Z,23.60
2018-07-22T18:10:58.917Z,17.60
2018-07-22T18:13:28.094Z,14.50
2018-07-22T18:15:57.696Z,16.50
2018-07-22T18:18:26.776Z,21.00
2018-07-22T18:20:55.477Z,22.00
2018-07-22T18:23:24.363Z,13.70
2018-07-22T18:25:53.426Z,29.13
2018-07-22T18:28:22.454Z,21.70
2018-07-22T18:30:51.555Z,23.80
2018-07-22T18:33:20.422Z,16.17
2018-07-22T18:35:49.338Z,16.37
2018-07-22T18:38:18.186Z,16.13
2018-07-22T18:40:47.115Z,17.20
2018-07-22T18:43:16.170Z,21.00
2018-07-22T18:45:45.355Z,16.20
2018-07-22T18:48:14.211Z,16.63
2018-07-22T18:50:43.270Z,20.47
2018-07-22T18:53:12.324Z,17.27
2018-07-22T18:55:41.304Z,19.40
2018-07-22T18:58:10.673Z,15.77
2018-07-22T19:00:39.658Z,16.20
2018-07-22T19:03:09.432Z,17.93
2018-07-22T19:05:39.229Z,18.10
2018-07-22T19:08:08.911Z,17.53
2018-07-22T19:10:39.024Z,21.10
2018-07-22T19:13:08.230Z,14.47
2018-07-22T19:15:37.702Z,17.60
2018-07-22T19:18:06.510Z,16.53
2018-07-22T19:20:35.244Z,17.67
2018-07-22T19:23:04.724Z,17.57
2018-07-22T19:25:34.220Z,15.70
2018-07-22T19:28:03.099Z,19.80
2018-07-22T19:30:32.140Z,19.00
2018-07-22T19:33:01.040Z,16.70
2018-07-22T19:35:29.902Z,19.13
2018-07-22T19:37:58.928Z,18.63
2018-07-22T19:40:28.334Z,19.10
2018-07-22T19:42:57.673Z,27.33
2018-07-22T19:45:26.802Z,17.10
2018-07-22T19:47:56.939Z,17.63
2018-07-22T19:50:25.943Z,17.40
2018-07-22T19:52:54.751Z,17.93
2018-07-22T19:55:23.772Z,19.90
2018-07-22T19:57:52.588Z,23.03
2018-07-22T20:00:21.866Z,19.00
2018-07-22T20:02:50.778Z,16.00
2018-07-22T20:05:19.742Z,17.00
2018-07-22T20:07:49.254Z,19.93
2018-07-22T20:10:18.087Z,24.60
2018-07-22T20:12:46.976Z,17.07
2018-07-22T20:15:15.907Z,19.20
2018-07-22T20:17:44.647Z,19.20
2018-07-22T20:20:13.915Z,16.40
2018-07-22T20:22:42.721Z,40.93
2018-07-22T20:25:11.538Z,18.50
2018-07-22T20:27:40.477Z,23.03
2018-07-22T20:30:09.601Z,20.30
2018-07-22T20:32:38.439Z,24.90
2018-07-22T20:35:07.507Z,24.37
2018-07-22T20:37:36.552Z,23.87
2018-07-22T20:40:05.942Z,19.53
2018-07-22T20:42:34.867Z,21.47
2018-07-22T20:45:04.089Z,31.40
2018-07-22T20:47:33.369Z,21.97
2018-07-22T20:50:02.371Z,21.47
2018-07-22T20:52:31.431Z,22.33
2018-07-22T20:55:00.359Z,21.43
2018-07-22T20:57:29.129Z,28.80
2018-07-22T20:59:58.039Z,22.00
2018-07-22T21:02:26.839Z,26.30
2018-07-22T21:04:55.808Z,23.23
2018-07-22T21:07:24.539Z,27.00
2018-07-22T21:09:53.221Z,38.67
2018-07-22T21:12:44.373Z,23.43
2018-07-22T21:15:14.169Z,28.87
2018-07-22T21:17:43.856Z,27.97
2018-07-22T21:20:11.486Z,26.83
2018-07-22T21:22:40.487Z,26.47
2018-07-22T21:25:09.456Z,23.97
2018-07-22T21:27:38.242Z,20.67
2018-07-22T21:30:09.142Z,31.60
2018-07-22T21:32:38.397Z,25.70
2018-07-22T21:35:07.556Z,26.47
2018-07-22T21:37:36.608Z,26.00
2018-07-22T21:40:06.618Z,22.53
2018-07-22T21:42:35.421Z,23.57
2018-07-22T21:45:05.078Z,25.77
2018-07-22T21:47:34.403Z,25.03
2018-07-22T21:50:03.416Z,22.90
2018-07-22T21:52:32.242Z,24.57
2018-07-22T21:55:01.477Z,28.17
2018-07-22T21:57:30.771Z,23.60
2018-07-22T21:59:59.512Z,20.50
2018-07-22T22:02:35.335Z,27.10
2018-07-22T22:05:04.936Z,25.07
2018-07-22T22:07:34.060Z,25.53
2018-07-22T22:10:03.094Z,22.87
2018-07-22T22:12:31.994Z,22.67
2018-07-22T22:15:00.962Z,23.30
2018-07-22T22:17:29.828Z,31.80
2018-07-22T22:19:58.654Z,27.73
2018-07-22T22:22:27.439Z,23.27
2018-07-22T22:24:56.374Z,31.53
2018-07-22T22:27:25.294Z,30.57
2018-07-22T22:29:54.253Z,24.30
2018-07-22T22:32:23.036Z,25.10
2018-07-22T22:34:52.105Z,30.00
2018-07-22T22:37:21.114Z,32.40
2018-07-22T22:39:50.123Z,33.73
2018-07-22T22:42:18.881Z,25.23
2018-07-22T22:44:47.809Z,23.93
2018-07-22T22:47:16.730Z,24.47
2018-07-22T22:49:45.573Z,24.50
2018-07-22T22:52:14.642Z,27.33
2018-07-22T22:54:43.505Z,29.80
2018-07-22T22:57:12.437Z,25.20
2018-07-22T22:59:41.455Z,30.10
2018-07-22T23:02:10.406Z,29.40
2018-07-22T23:04:39.265Z,26.70
2018-07-22T23:07:08.154Z,26.10
2018-07-22T23:09:37.038Z,25.13
2018-07-22T23:12:05.770Z,27.07
2018-07-22T23:14:34.946Z,25.73
2018-07-22T23:17:03.787Z,26.80
2018-07-22T23:19:32.708Z,26.27
2018-07-22T23:22:01.553Z,25.00
2018-07-22T23:24:30.526Z,23.90
2018-07-22T23:26:59.785Z,27.00
2018-07-22T23:29:28.834Z,28.83
2018-07-22T23:31:57.768Z,31.77
2018-07-22T23:34:26.615Z,30.90
2018-07-22T23:36:55.478Z,35.20
2018-07-22T23:39:24.354Z,27.77
2018-07-22T23:41:53.079Z,27.97
2018-07-22T23:44:21.945Z,25.30
2018-07-22T23:46:51.426Z,25.30
2018-07-22T23:49:20.190Z,24.97
2018-07-22T23:51:48.960Z,28.87
2018-07-22T23:54:17.816Z,28.93
2018-07-22T23:56:46.690Z,33.50
2018-07-22T23:59:15.546Z,28.10
